createdAt,value
2023-10-23T00:02:18.446Z,18.98
2023-10-23T00:04:46.828Z,18.60
2023-10-23T00:07:15.774Z,17.98
2023-10-23T00:09:44.542Z,17.92
2023-10-23T00:12:13.530Z,17.42
2023-10-23T00:14:42.124Z,18.40
2023-10-23T00:17:10.884Z,17.77
2023-10-23T00:19:39.313Z,17.13
2023-10-23T00:22:07.997Z,16.75
2023-10-23T00:24:36.394Z,17.08
2023-10-23T00:27:10.384Z,17.00
2023-10-23T00:29:38.644Z,16.85
2023-10-23T00:32:07.569Z,16.15
2023-10-23T00:34:36.226Z,14.73
2023-10-23T00:37:05.366Z,15.25
2023-10-23T00:39:35.540Z,15.35
2023-10-23T00:42:05.068Z,15.93
2023-10-23T00:44:33.383Z,15.45
2023-10-23T00:47:03.259Z,17.27
2023-10-23T00:49:31.911Z,16.70
2023-10-23T00:52:02.839Z,14.48
2023-10-23T00:54:33.373Z,13.98
2023-10-23T00:57:04.631Z,13.98
2023-10-23T00:59:33.219Z,15.20
2023-10-23T01:02:01.820Z,14.90
2023-10-23T01:04:30.771Z,14.45
2023-10-23T01:06:59.832Z,15.82
2023-10-23T01:09:28.512Z,15.63
2023-10-23T01:11:57.616Z,13.73
2023-10-23T01:14:26.075Z,14.18
2023-10-23T01:16:54.920Z,15.52
2023-10-23T01:19:23.275Z,15.75
2023-10-23T01:21:52.326Z,15.85
2023-10-23T01:24:23.284Z,15.18
2023-10-23T01:26:52.118Z,15.18
2023-10-23T01:29:20.423Z,14.63
2023-10-23T01:31:49.325Z,15.52
2023-10-23T01:34:17.721Z,15.77
2023-10-23T01:36:46.698Z,15.75
2023-10-23T01:39:15.197Z,15.52
2023-10-23T01:41:44.696Z,15.68
2023-10-23T01:44:15.792Z,16.17
2023-10-23T01:46:45.474Z,16.43
2023-10-23T01:49:14.001Z,15.57
2023-10-23T01:51:46.383Z,16.35
2023-10-23T01:54:14.833Z,16.27
2023-10-23T01:56:43.756Z,15.63
2023-10-23T01:59:12.079Z,16.50
2023-10-23T02:01:41.348Z,16.48
2023-10-23T02:04:10.281Z,16.27
2023-10-23T02:06:39.092Z,17.23
2023-10-23T02:09:09.315Z,18.90
2023-10-23T02:11:37.995Z,17.88
2023-10-23T02:14:08.549Z,17.77
2023-10-23T02:16:37.681Z,18.10
2023-10-23T02:19:06.564Z,18.25
2023-10-23T02:21:35.529Z,18.92
2023-10-23T02:24:04.234Z,18.27
2023-10-23T02:26:33.369Z,18.98
2023-10-23T02:29:02.563Z,18.83
2023-10-23T02:31:31.373Z,17.25
2023-10-23T02:33:59.814Z,17.83
2023-10-23T02:36:29.292Z,18.50
2023-10-23T02:38:57.849Z,18.38
2023-10-23T02:41:29.912Z,17.92
2023-10-23T02:43:59.421Z,18.90
2023-10-23T02:46:28.833Z,18.42
2023-10-23T02:48:57.416Z,19.95
2023-10-23T02:51:26.162Z,19.77
2023-10-23T02:53:54.408Z,20.38
2023-10-23T02:56:24.560Z,18.80
2023-10-23T02:58:55.976Z,18.67
2023-10-23T03:01:25.344Z,17.98
2023-10-23T03:03:55.668Z,18.52
2023-10-23T03:06:24.630Z,18.63
2023-10-23T03:08:54.776Z,17.60
2023-10-23T03:11:23.711Z,18.45
2023-10-23T03:13:52.205Z,17.33
2023-10-23T03:16:24.003Z,18.35
2023-10-23T03:18:52.893Z,19.55
2023-10-23T03:21:24.934Z,18.73
2023-10-23T03:23:53.539Z,18.63
2023-10-23T03:26:23.807Z,19.15
2023-10-23T03:28:53.258Z,18.15
2023-10-23T03:31:23.534Z,19.23
2023-10-23T03:33:53.366Z,17.75
2023-10-23T03:36:22.652Z,17.73
2023-10-23T03:38:51.200Z,17.58
2023-10-23T03:41:20.122Z,18.67
2023-10-23T03:43:48.670Z,17.67
2023-10-23T03:46:17.459Z,17.60
2023-10-23T03:48:46.587Z,18.85
2023-10-23T03:51:15.526Z,18.23
2023-10-23T03:53:43.876Z,18.13
2023-10-23T03:56:13.197Z,18.70
2023-10-23T03:58:41.765Z,19.08
2023-10-23T04:01:10.939Z,18.48
2023-10-23T04:03:39.658Z,19.30
2023-10-23T04:06:08.478Z,20.02
2023-10-23T04:08:36.873Z,19.02
2023-10-23T04:11:09.814Z,19.40
2023-10-23T04:13:38.233Z,20.02
2023-10-23T04:16:10.177Z,19.05
2023-10-23T04:18:38.708Z,19.33
2023-10-23T04:21:09.562Z,19.33
2023-10-23T04:23:39.731Z,18.75
2023-10-23T04:26:09.570Z,19.15
2023-10-23T04:28:40.327Z,19.48
2023-10-23T04:31:09.124Z,18.15
2023-10-23T04:33:37.612Z,20.23
2023-10-23T04:36:07.045Z,19.65
2023-10-23T04:38:35.428Z,19.70
2023-10-23T04:41:04.320Z,19.20
2023-10-23T04:43:34.662Z,18.02
2023-10-23T04:46:03.500Z,19.25
2023-10-23T04:48:32.176Z,19.77
2023-10-23T04:51:01.590Z,18.38
2023-10-23T04:53:30.231Z,19.77
2023-10-23T04:55:59.972Z,19.52
2023-10-23T04:58:28.688Z,18.65
2023-10-23T05:00:57.606Z,18.98
2023-10-23T05:03:26.255Z,19.17
2023-10-23T05:05:55.235Z,19.33
2023-10-23T05:08:23.589Z,19.08
2023-10-23T05:10:52.602Z,20.10
2023-10-23T05:13:20.976Z,20.98
2023-10-23T05:15:50.074Z,20.83
2023-10-23T05:18:18.467Z,20.65
2023-10-23T05:20:47.161Z,20.23
2023-10-23T05:23:20.380Z,19.02
2023-10-23T05:25:49.716Z,19.52
2023-10-23T05:28:18.771Z,20.42
2023-10-23T05:30:58.536Z,19.63
2023-10-23T05:33:27.023Z,20.38
2023-10-23T05:36:06.411Z,20.15
2023-10-23T05:38:35.000Z,20.33
2023-10-23T05:41:03.926Z,19.55
2023-10-23T05:43:32.276Z,20.73
2023-10-23T05:46:04.720Z,20.25
2023-10-23T05:51:05.110Z,19.52
2023-10-23T05:53:34.223Z,20.43
2023-10-23T05:56:05.269Z,19.98
2023-10-23T05:58:35.175Z,21.17
2023-10-23T06:01:08.598Z,21.65
2023-10-23T06:03:37.766Z,22.48
2023-10-23T06:06:07.394Z,21.50
2023-10-23T06:08:36.238Z,21.10
2023-10-23T06:11:09.266Z,20.42
2023-10-23T06:13:37.653Z,20.05
2023-10-23T06:16:12.855Z,19.90
2023-10-23T06:18:41.814Z,19.95
2023-10-23T06:21:10.657Z,21.00
2023-10-23T06:23:40.872Z,19.48
2023-10-23T06:26:10.054Z,20.25
2023-10-23T06:28:39.085Z,20.33
2023-10-23T06:31:09.399Z,20.02
2023-10-23T06:33:40.422Z,19.90
2023-10-23T06:36:09.785Z,19.52
2023-10-23T06:38:39.110Z,20.63
2023-10-23T06:41:09.248Z,19.50
2023-10-23T06:43:40.676Z,20.00
2023-10-23T06:46:09.859Z,20.42
2023-10-23T06:48:45.656Z,21.05
2023-10-23T06:51:17.577Z,21.35
2023-10-23T06:53:45.988Z,23.37
2023-10-23T06:56:14.864Z,21.33
2023-10-23T06:58:43.369Z,20.55
2023-10-23T07:01:12.300Z,19.73
2023-10-23T07:03:41.199Z,18.85
2023-10-23T07:06:10.807Z,18.85
2023-10-23T07:08:41.027Z,19.30
2023-10-23T07:11:17.907Z,18.85
2023-10-23T07:13:46.516Z,18.58
2023-10-23T07:16:16.397Z,19.13
2023-10-23T07:18:45.241Z,19.05
2023-10-23T07:21:16.193Z,18.10
2023-10-23T07:23:45.364Z,18.63
2023-10-23T07:26:16.258Z,18.95
2023-10-23T07:28:45.015Z,18.10
2023-10-23T07:31:14.812Z,17.98
2023-10-23T07:33:43.929Z,18.83
2023-10-23T07:36:14.742Z,16.83
2023-10-23T07:38:44.673Z,17.33
2023-10-23T07:41:14.598Z,16.80
2023-10-23T07:43:43.933Z,15.90
2023-10-23T07:46:17.241Z,16.25
2023-10-23T07:48:47.226Z,16.15
2023-10-23T07:51:16.768Z,15.95
2023-10-23T07:53:45.283Z,15.13
2023-10-23T07:56:14.658Z,13.80
2023-10-23T07:58:43.193Z,13.57
2023-10-23T08:01:13.980Z,13.30
2023-10-23T08:03:42.902Z,14.88
2023-10-23T08:06:12.554Z,13.45
2023-10-23T08:08:43.184Z,12.88
2023-10-23T08:11:14.551Z,12.93
2023-10-23T08:13:43.602Z,13.10
2023-10-23T08:16:13.619Z,10.85
2023-10-23T08:18:42.859Z,10.02
2023-10-23T08:21:13.833Z,10.25
2023-10-23T08:23:44.101Z,9.18
2023-10-23T08:26:13.775Z,9.93
2023-10-23T08:29:01.133Z,9.20
2023-10-23T08:31:39.402Z,9.05
2023-10-23T08:34:10.225Z,8.93
2023-10-23T08:36:39.738Z,8.70
2023-10-23T08:39:09.794Z,8.40
2023-10-23T08:41:41.942Z,9.80
2023-10-23T08:44:11.520Z,9.93
2023-10-23T08:46:41.408Z,9.10
2023-10-23T08:49:10.416Z,8.18
2023-10-23T08:51:42.936Z,7.90
2023-10-23T08:54:19.106Z,8.43
2023-10-23T08:57:00.190Z,9.95
2023-10-23T08:59:29.093Z,8.32
2023-10-23T09:02:01.999Z,9.15
2023-10-23T09:04:31.321Z,8.65
2023-10-23T09:07:01.792Z,8.27
2023-10-23T09:09:31.995Z,8.43
2023-10-23T09:12:02.800Z,8.25
2023-10-23T09:14:37.286Z,8.52
2023-10-23T09:17:06.952Z,7.88
2023-10-23T09:19:40.643Z,7.57
2023-10-23T09:22:10.241Z,7.68
2023-10-23T09:24:39.581Z,7.53
2023-10-23T09:27:09.269Z,6.85
2023-10-23T09:29:37.848Z,6.85
2023-10-23T09:32:07.270Z,6.57
2023-10-23T09:34:43.168Z,6.18
2023-10-23T09:37:11.988Z,5.60
2023-10-23T09:39:41.616Z,5.53
2023-10-23T09:42:11.287Z,6.43
2023-10-23T09:44:44.047Z,7.15
2023-10-23T09:47:13.686Z,4.80
2023-10-23T09:49:43.254Z,5.93
2023-10-23T09:52:15.693Z,5.18
2023-10-23T09:54:48.655Z,5.40
2023-10-23T09:57:21.057Z,4.65
2023-10-23T10:03:16.877Z,4.28
2023-10-23T10:06:13.257Z,3.80
2023-10-23T10:09:13.666Z,3.95
2023-10-23T10:11:53.659Z,3.75
2023-10-23T10:14:26.600Z,4.20
2023-10-23T10:16:58.752Z,3.45
2023-10-23T10:19:27.528Z,3.65
2023-10-23T10:22:47.263Z,3.63
2023-10-23T10:25:17.143Z,3.97
2023-10-23T10:27:57.298Z,3.85
2023-10-23T10:30:52.261Z,4.00
2023-10-23T10:34:37.612Z,3.40
2023-10-23T10:37:25.365Z,3.75
2023-10-23T10:39:58.456Z,3.20
2023-10-23T10:42:29.915Z,2.90
2023-10-23T10:45:01.346Z,3.35
2023-10-23T10:48:48.080Z,2.90
2023-10-23T10:51:19.442Z,2.65
2023-10-23T10:53:49.319Z,2.90
2023-10-23T10:56:18.066Z,3.00
2023-10-23T10:58:47.221Z,3.05
2023-10-23T11:01:16.033Z,2.97
2023-10-23T11:03:44.636Z,2.80
2023-10-23T11:06:13.557Z,2.60
2023-10-23T11:08:42.845Z,2.88
2023-10-23T11:11:12.253Z,2.28
2023-10-23T11:13:44.740Z,2.35
2023-10-23T11:16:13.504Z,2.33
2023-10-23T11:18:41.955Z,2.38
2023-10-23T11:21:11.731Z,2.30
2023-10-23T11:23:40.138Z,2.15
2023-10-23T11:26:09.361Z,2.80
2023-10-23T11:28:50.680Z,2.00
2023-10-23T11:31:22.749Z,2.17
2023-10-23T11:33:57.550Z,2.03
2023-10-23T11:36:36.491Z,2.10
2023-10-23T11:39:09.452Z,2.00
2023-10-23T11:41:38.492Z,2.22
2023-10-23T11:44:07.211Z,2.55
2023-10-23T11:47:01.745Z,2.33
2023-10-23T11:49:30.428Z,2.78
2023-10-23T11:52:01.036Z,3.78
2023-10-23T11:54:29.914Z,4.82
2023-10-23T11:57:00.351Z,3.60
2023-10-23T11:59:29.103Z,2.92
2023-10-23T12:02:02.172Z,3.05
2023-10-23T12:04:36.626Z,2.70
2023-10-23T12:07:06.007Z,2.83
2023-10-23T12:09:37.908Z,2.75
2023-10-23T12:12:07.150Z,2.88
2023-10-23T12:14:35.462Z,3.08
2023-10-23T12:17:04.925Z,3.00
2023-10-23T12:19:33.656Z,3.20
2023-10-23T12:22:02.501Z,3.13
2023-10-23T12:24:30.987Z,3.30
2023-10-23T12:27:00.454Z,3.10
2023-10-23T12:29:29.716Z,2.90
2023-10-23T12:32:01.364Z,3.17
2023-10-23T12:34:32.535Z,3.08
2023-10-23T12:37:01.656Z,3.43
2023-10-23T12:39:30.350Z,3.17
2023-10-23T12:41:59.091Z,3.60
2023-10-23T12:47:20.760Z,4.10
2023-10-23T12:49:49.437Z,4.20
2023-10-23T12:52:18.377Z,4.20
2023-10-23T13:01:55.297Z,4.15
2023-10-23T13:04:24.497Z,5.60
2023-10-23T13:06:55.487Z,4.78
2023-10-23T13:09:24.711Z,4.80
2023-10-23T13:11:53.891Z,5.22
2023-10-23T13:14:22.886Z,5.80
2023-10-23T13:16:51.651Z,5.70
2023-10-23T13:19:24.647Z,5.10
2023-10-23T13:21:53.103Z,6.80
2023-10-23T13:24:22.076Z,7.50
2023-10-23T13:26:59.632Z,6.07
2023-10-23T13:29:55.370Z,5.00
2023-10-23T13:32:54.548Z,5.70
2023-10-23T13:35:24.860Z,4.63
2023-10-23T13:37:54.444Z,4.80
2023-10-23T13:40:25.858Z,5.82
2023-10-23T13:42:54.620Z,5.35
2023-10-23T13:45:23.104Z,6.05
2023-10-23T13:47:52.098Z,5.10
2023-10-23T13:50:20.917Z,5.90
2023-10-23T13:52:49.843Z,8.68
2023-10-23T13:55:18.397Z,5.07
2023-10-23T13:57:47.622Z,5.10
2023-10-23T14:00:17.386Z,4.85
2023-10-23T14:02:49.942Z,5.70
2023-10-23T14:05:18.917Z,5.68
2023-10-23T14:07:47.942Z,6.63
2023-10-23T14:10:21.518Z,6.50
2023-10-23T14:12:53.904Z,4.95
2023-10-23T14:15:22.727Z,6.20
2023-10-23T14:17:51.603Z,5.78
2023-10-23T14:20:20.877Z,5.20
2023-10-23T14:22:49.850Z,6.97
2023-10-23T14:25:18.882Z,9.02
2023-10-23T14:27:47.848Z,6.32
2023-10-23T14:30:16.532Z,6.75
2023-10-23T14:33:36.497Z,8.13
2023-10-23T14:36:05.437Z,7.40
2023-10-23T14:38:34.498Z,8.57
2023-10-23T14:41:04.217Z,9.18
2023-10-23T14:43:34.560Z,7.20
2023-10-23T14:46:03.129Z,8.40
2023-10-23T14:48:34.284Z,10.45
2023-10-23T14:51:02.812Z,9.85
2023-10-23T14:53:33.913Z,8.77
2023-10-23T14:56:12.000Z,11.48
2023-10-23T14:58:40.977Z,11.48
2023-10-23T15:01:10.371Z,9.82
2023-10-23T15:03:43.427Z,11.27
2023-10-23T15:06:14.921Z,9.13
2023-10-23T15:08:46.649Z,9.00
2023-10-23T15:11:16.499Z,10.20
2023-10-23T15:13:45.285Z,9.90
2023-10-23T15:16:13.993Z,10.68
2023-10-23T15:18:43.010Z,10.35
2023-10-23T15:21:13.076Z,10.65
2023-10-23T15:23:41.877Z,10.77
2023-10-23T15:26:10.310Z,11.88
2023-10-23T15:28:39.856Z,12.43
2023-10-23T15:31:09.459Z,41.10
2023-10-23T15:33:41.629Z,80.60
2023-10-23T15:36:10.517Z,47.83
2023-10-23T15:38:40.198Z,50.80
2023-10-23T15:41:13.835Z,25.05
2023-10-23T15:43:45.870Z,21.83
2023-10-23T15:46:18.550Z,31.92
2023-10-23T15:51:30.830Z,28.17
2023-10-23T15:53:59.676Z,18.67
2023-10-23T15:56:47.348Z,15.73
2023-10-23T15:59:16.228Z,14.48
2023-10-23T16:01:45.263Z,18.63
2023-10-23T16:04:14.112Z,19.75
2023-10-23T16:06:44.950Z,18.80
2023-10-23T16:09:22.001Z,18.00
2023-10-23T16:11:56.170Z,18.27
2023-10-23T16:14:26.699Z,18.02
2023-10-23T16:16:56.381Z,18.05
2023-10-23T16:19:25.490Z,18.13
2023-10-23T16:21:54.122Z,18.60
2023-10-23T16:24:22.732Z,19.00
2023-10-23T16:26:50.973Z,19.13
2023-10-23T16:29:19.556Z,19.27
2023-10-23T16:31:48.030Z,31.88
2023-10-23T16:34:16.703Z,30.48
2023-10-23T16:36:45.130Z,33.80
2023-10-23T16:39:13.706Z,34.28
2023-10-23T16:41:43.909Z,33.88
2023-10-23T16:44:12.800Z,30.95
2023-10-23T16:46:41.208Z,21.80
2023-10-23T16:49:19.003Z,24.67
2023-10-23T16:52:14.094Z,23.02
2023-10-23T16:54:43.072Z,22.63
2023-10-23T16:57:11.850Z,27.75
2023-10-23T16:59:40.889Z,35.00
2023-10-23T17:02:10.789Z,40.47
2023-10-23T17:04:40.811Z,41.97
2023-10-23T17:07:09.524Z,38.03
2023-10-23T17:09:38.509Z,29.35
2023-10-23T17:12:08.713Z,31.92
2023-10-23T17:14:37.640Z,28.40
2023-10-23T17:17:06.497Z,34.10
2023-10-23T17:19:35.784Z,39.67
2023-10-23T17:22:04.420Z,31.10
2023-10-23T17:24:33.131Z,34.67
2023-10-23T17:27:02.032Z,26.70
2023-10-23T17:29:34.575Z,28.25
2023-10-23T17:32:09.669Z,27.63
2023-10-23T17:34:38.851Z,27.08
2023-10-23T17:37:07.361Z,26.90
2023-10-23T17:39:36.349Z,27.42
2023-10-23T17:42:07.771Z,27.15
2023-10-23T17:44:36.446Z,26.45
2023-10-23T17:47:05.196Z,26.60
2023-10-23T17:49:34.231Z,24.75
2023-10-23T17:52:02.986Z,27.13
2023-10-23T17:54:39.901Z,25.08
2023-10-23T17:57:08.424Z,25.25
2023-10-23T17:59:37.086Z,25.70
2023-10-23T18:02:05.545Z,24.17
2023-10-23T18:04:34.514Z,23.73
2023-10-23T18:07:04.897Z,28.77
2023-10-23T18:09:33.564Z,26.55
2023-10-23T18:12:02.075Z,26.45
2023-10-23T18:14:32.274Z,24.05
2023-10-23T18:17:05.843Z,24.08
2023-10-23T18:19:35.969Z,25.77
2023-10-23T18:22:06.158Z,31.45
2023-10-23T18:24:34.986Z,28.23
2023-10-23T18:27:04.216Z,31.70
2023-10-23T18:29:36.434Z,27.80
2023-10-23T18:32:06.043Z,26.45
2023-10-23T18:34:40.392Z,28.63
2023-10-23T18:37:09.991Z,38.83
2023-10-23T18:39:39.002Z,40.15
2023-10-23T18:42:10.040Z,42.38
2023-10-23T18:44:43.736Z,44.80
2023-10-23T18:47:15.401Z,51.63
2023-10-23T18:49:50.602Z,60.08
2023-10-23T18:52:19.785Z,65.25
2023-10-23T18:54:49.068Z,57.83
2023-10-23T18:57:17.519Z,66.20
2023-10-23T18:59:49.302Z,76.50
2023-10-23T19:02:17.826Z,76.88
2023-10-23T19:05:11.987Z,74.72
2023-10-23T19:07:42.624Z,75.50
2023-10-23T19:10:13.649Z,76.55
2023-10-23T19:12:42.399Z,73.50
2023-10-23T19:15:11.800Z,66.57
2023-10-23T19:17:41.567Z,57.88
2023-10-23T19:20:11.132Z,42.03
2023-10-23T19:22:40.199Z,44.13
2023-10-23T19:25:09.430Z,52.88
2023-10-23T19:27:38.104Z,61.00
2023-10-23T19:30:12.375Z,67.63
2023-10-23T19:32:42.257Z,65.25
2023-10-23T19:35:14.083Z,61.55
2023-10-23T19:37:43.430Z,60.47
2023-10-23T19:40:13.509Z,65.68
2023-10-23T19:42:42.693Z,68.80
2023-10-23T19:45:12.084Z,64.57
2023-10-23T19:47:40.879Z,76.50
2023-10-23T19:50:11.570Z,92.80
2023-10-23T19:53:35.250Z,82.45
2023-10-23T19:56:11.484Z,60.22
2023-10-23T19:58:40.847Z,54.17
2023-10-23T20:01:09.594Z,43.78
2023-10-23T20:03:38.050Z,47.17
2023-10-23T20:06:13.103Z,48.60
2023-10-23T20:08:41.483Z,55.38
2023-10-23T20:11:12.658Z,58.70
2023-10-23T20:13:41.162Z,66.45
2023-10-23T20:16:11.272Z,76.50
2023-10-23T20:18:40.681Z,73.13
2023-10-23T20:21:09.531Z,73.93
2023-10-23T20:23:38.371Z,66.28
2023-10-23T20:26:15.531Z,64.07
2023-10-23T20:28:44.871Z,46.53
2023-10-23T20:31:18.008Z,46.55
2023-10-23T20:36:34.013Z,57.35
2023-10-23T20:39:19.232Z,60.28
2023-10-23T20:42:15.577Z,56.58
2023-10-23T20:44:44.172Z,56.92
2023-10-23T20:47:16.222Z,46.45
2023-10-23T20:49:46.633Z,44.30
2023-10-23T20:52:15.591Z,45.05
2023-10-23T20:54:44.012Z,47.67
2023-10-23T20:57:38.139Z,50.72
2023-10-23T21:00:07.737Z,51.30
2023-10-23T21:02:38.905Z,49.65
2023-10-23T21:05:08.156Z,51.28
2023-10-23T21:07:39.932Z,55.00
2023-10-23T21:10:10.557Z,58.72
2023-10-23T21:12:39.387Z,71.60
2023-10-23T21:15:08.284Z,84.13
2023-10-23T21:17:37.383Z,91.68
2023-10-23T21:20:06.362Z,102.65
2023-10-23T21:23:00.015Z,103.80
2023-10-23T21:25:28.341Z,76.85
2023-10-23T21:27:59.199Z,66.18
2023-10-23T21:30:27.613Z,81.20
2023-10-23T21:32:56.404Z,54.83
2023-10-23T21:35:24.978Z,49.50
2023-10-23T21:37:53.749Z,48.97
2023-10-23T21:40:22.169Z,51.13
2023-10-23T21:42:50.939Z,53.85
2023-10-23T21:45:19.342Z,48.92
2023-10-23T21:47:49.493Z,53.72
2023-10-23T21:50:19.398Z,51.05
2023-10-23T21:52:48.532Z,51.80
2023-10-23T21:55:18.487Z,53.40
2023-10-23T21:57:57.806Z,57.33
2023-10-23T22:00:29.356Z,58.60
2023-10-23T22:03:03.480Z,53.33
2023-10-23T22:05:33.676Z,48.25
2023-10-23T22:08:02.538Z,49.53
2023-10-23T22:10:31.942Z,46.40
2023-10-23T22:13:00.879Z,48.65
2023-10-23T22:15:29.184Z,54.40
2023-10-23T22:17:58.354Z,80.68
2023-10-23T22:20:26.766Z,67.70
2023-10-23T22:22:55.420Z,61.88
2023-10-23T22:25:23.854Z,62.83
2023-10-23T22:27:52.556Z,59.20
2023-10-23T22:30:20.871Z,60.22
2023-10-23T22:33:00.189Z,45.17
2023-10-23T22:36:03.356Z,36.58
2023-10-23T22:38:32.000Z,31.27
2023-10-23T22:41:00.438Z,37.53
2023-10-23T22:43:29.572Z,36.33
2023-10-23T22:46:03.001Z,32.88
2023-10-23T22:48:33.006Z,29.05
2023-10-23T22:51:02.038Z,31.30
2023-10-23T22:53:31.155Z,33.22
2023-10-23T22:56:02.004Z,36.55
2023-10-23T22:58:32.559Z,38.35
2023-10-23T23:01:01.533Z,37.33
2023-10-23T23:03:30.652Z,44.20
2023-10-23T23:06:06.005Z,43.78
2023-10-23T23:08:42.293Z,41.67
2023-10-23T23:11:11.018Z,38.47
2023-10-23T23:13:39.825Z,39.60
2023-10-23T23:16:09.004Z,43.70
2023-10-23T23:18:39.753Z,39.50
2023-10-23T23:21:11.257Z,38.03
2023-10-23T23:23:39.736Z,44.50
2023-10-23T23:26:08.656Z,41.03
2023-10-23T23:28:36.949Z,49.97
2023-10-23T23:31:05.637Z,53.08
2023-10-23T23:33:34.335Z,49.05
2023-10-23T23:36:03.256Z,55.45
2023-10-23T23:38:31.545Z,55.00
2023-10-23T23:41:01.048Z,58.63
2023-10-23T23:43:29.622Z,55.03
2023-10-23T23:45:58.559Z,54.88
2023-10-23T23:48:26.903Z,48.25
2023-10-23T23:50:55.496Z,52.10
2023-10-23T23:53:23.805Z,46.20
2023-10-23T23:55:52.601Z,44.10
2023-10-23T23:58:25.058Z,44.20
